sensor_id;sensor_type;location;lat;lon;timestamp;P1;durP1;ratioP1;P2;durP2;ratioP2
57822;SDS011;43650;48.064;20.624;2023-01-16T00:00:15;27.63;;;9.70;;
57822;SDS011;43650;48.064;20.624;2023-01-16T00:01:17;18.60;;;8.52;;
57822;SDS011;43650;48.064;20.624;2023-01-16T00:02:18;43.53;;;9.68;;
57822;SDS011;43650;48.064;20.624;2023-01-16T00:03:19;47.35;;;9.30;;
57822;SDS011;43650;48.064;20.624;2023-01-16T00:04:20;13.32;;;6.78;;
57822;SDS011;43650;48.064;20.624;2023-01-16T00:05:21;17.48;;;6.25;;
57822;SDS011;43650;48.064;20.624;2023-01-16T00:06:21;36.40;;;9.77;;
57822;SDS011;43650;48.064;20.624;2023-01-16T00:07:22;43.83;;;10.73;;
57822;SDS011;43650;48.064;20.624;2023-01-16T00:08:22;25.03;;;10.37;;
57822;SDS011;43650;48.064;20.624;2023-01-16T00:09:22;29.40;;;12.80;;
57822;SDS011;43650;48.064;20.624;2023-01-16T00:10:23;201.43;;;22.60;;
57822;SDS011;43650;48.064;20.624;2023-01-16T00:11:23;46.33;;;13.40;;
57822;SDS011;43650;48.064;20.624;2023-01-16T00:12:24;49.43;;;15.87;;
57822;SDS011;43650;48.064;20.624;2023-01-16T00:13:24;35.63;;;12.23;;
57822;SDS011;43650;48.064;20.624;2023-01-16T00:14:24;37.47;;;14.27;;
57822;SDS011;43650;48.064;20.624;2023-01-16T00:15:25;45.80;;;13.80;;
57822;SDS011;43650;48.064;20.624;2023-01-16T00:16:26;32.43;;;13.10;;
57822;SDS011;43650;48.064;20.624;2023-01-16T00:17:27;39.58;;;13.82;;
57822;SDS011;43650;48.064;20.624;2023-01-16T00:18:27;38.37;;;15.20;;
57822;SDS011;43650;48.064;20.624;2023-01-16T00:19:28;77.63;;;14.87;;
57822;SDS011;43650;48.064;20.624;2023-01-16T00:20:28;36.20;;;13.97;;
57822;SDS011;43650;48.064;20.624;2023-01-16T00:21:29;34.60;;;11.97;;
57822;SDS011;43650;48.064;20.624;2023-01-16T00:22:29;34.37;;;8.93;;
57822;SDS011;43650;48.064;20.624;2023-01-16T00:23:29;31.40;;;11.47;;
57822;SDS011;43650;48.064;20.624;2023-01-16T00:24:30;31.27;;;13.03;;
57822;SDS011;43650;48.064;20.624;2023-01-16T00:25:30;58.10;;;11.87;;
57822;SDS011;43650;48.064;20.624;2023-01-16T00:26:31;50.83;;;14.40;;
57822;SDS011;43650;48.064;20.624;2023-01-16T00:27:31;29.60;;;12.07;;
57822;SDS011;43650;48.064;20.624;2023-01-16T00:28:32;32.70;;;13.13;;
57822;SDS011;43650;48.064;20.624;2023-01-16T00:29:32;27.10;;;11.48;;
57822;SDS011;43650;48.064;20.624;2023-01-16T00:30:33;27.80;;;12.20;;
57822;SDS011;43650;48.064;20.624;2023-01-16T00:31:33;55.50;;;12.77;;
57822;SDS011;43650;48.064;20.624;2023-01-16T00:32:34;49.40;;;13.10;;
57822;SDS011;43650;48.064;20.624;2023-01-16T00:33:34;105.13;;;13.00;;
57822;SDS011;43650;48.064;20.624;2023-01-16T00:34:35;39.30;;;11.20;;
57822;SDS011;43650;48.064;20.624;2023-01-16T00:35:35;24.40;;;9.73;;
57822;SDS011;43650;48.064;20.624;2023-01-16T00:36:36;53.90;;;10.33;;
57822;SDS011;43650;48.064;20.624;2023-01-16T00:37:38;65.50;;;10.48;;
57822;SDS011;43650;48.064;20.624;2023-01-16T00:38:39;241.30;;;21.27;;
57822;SDS011;43650;48.064;20.624;2023-01-16T00:39:39;181.33;;;14.03;;
57822;SDS011;43650;48.064;20.624;2023-01-16T00:40:40;28.33;;;7.90;;
57822;SDS011;43650;48.064;20.624;2023-01-16T00:41:40;28.53;;;7.07;;
57822;SDS011;43650;48.064;20.624;2023-01-16T00:42:40;225.90;;;17.10;;
57822;SDS011;43650;48.064;20.624;2023-01-16T00:43:41;210.43;;;16.23;;
57822;SDS011;43650;48.064;20.624;2023-01-16T00:44:41;209.80;;;16.90;;
57822;SDS011;43650;48.064;20.624;2023-01-16T00:45:42;72.43;;;9.67;;
57822;SDS011;43650;48.064;20.624;2023-01-16T00:46:43;421.30;;;26.80;;
57822;SDS011;43650;48.064;20.624;2023-01-16T00:47:43;186.30;;;15.07;;
57822;SDS011;43650;48.064;20.624;2023-01-16T00:48:43;166.77;;;14.00;;
57822;SDS011;43650;48.064;20.624;2023-01-16T00:49:44;12.53;;;5.73;;
57822;SDS011;43650;48.064;20.624;2023-01-16T00:50:44;10.93;;;5.50;;
57822;SDS011;43650;48.064;20.624;2023-01-16T00:51:45;95.20;;;10.23;;
57822;SDS011;43650;48.064;20.624;2023-01-16T00:52:45;42.57;;;9.50;;
57822;SDS011;43650;48.064;20.624;2023-01-16T00:53:46;65.67;;;9.93;;
57822;SDS011;43650;48.064;20.624;2023-01-16T00:54:46;59.80;;;11.27;;
57822;SDS011;43650;48.064;20.624;2023-01-16T00:55:47;88.87;;;13.60;;
57822;SDS011;43650;48.064;20.624;2023-01-16T00:56:47;57.70;;;9.90;;
57822;SDS011;43650;48.064;20.624;2023-01-16T00:57:47;92.57;;;14.80;;
57822;SDS011;43650;48.064;20.624;2023-01-16T00:58:48;199.53;;;20.67;;
57822;SDS011;43650;48.064;20.624;2023-01-16T00:59:48;84.47;;;14.90;;
57822;SDS011;43650;48.064;20.624;2023-01-16T01:00:49;95.80;;;16.40;;
57822;SDS011;43650;48.064;20.624;2023-01-16T01:01:49;52.93;;;12.63;;
57822;SDS011;43650;48.064;20.624;2023-01-16T01:02:49;48.57;;;12.20;;
57822;SDS011;43650;48.064;20.624;2023-01-16T01:03:50;65.65;;;12.82;;
57822;SDS011;43650;48.064;20.624;2023-01-16T01:04:51;36.03;;;10.20;;
57822;SDS011;43650;48.064;20.624;2023-01-16T01:05:51;40.47;;;10.30;;
57822;SDS011;43650;48.064;20.624;2023-01-16T01:06:52;218.47;;;21.07;;
57822;SDS011;43650;48.064;20.624;2023-01-16T01:07:52;153.30;;;18.00;;
57822;SDS011;43650;48.064;20.624;2023-01-16T01:08:52;47.97;;;11.80;;
57822;SDS011;43650;48.064;20.624;2023-01-16T01:09:53;74.27;;;13.00;;
57822;SDS011;43650;48.064;20.624;2023-01-16T01:10:53;77.23;;;11.90;;
57822;SDS011;43650;48.064;20.624;2023-01-16T01:11:55;83.17;;;12.23;;
57822;SDS011;43650;48.064;20.624;2023-01-16T01:12:56;51.80;;;11.32;;
57822;SDS011;43650;48.064;20.624;2023-01-16T01:13:57;102.10;;;13.50;;
57822;SDS011;43650;48.064;20.624;2023-01-16T01:14:57;143.77;;;15.40;;
57822;SDS011;43650;48.064;20.624;2023-01-16T01:15:57;208.20;;;17.10;;
57822;SDS011;43650;48.064;20.624;2023-01-16T01:16:58;248.80;;;21.10;;
57822;SDS011;43650;48.064;20.624;2023-01-16T01:17:58;39.23;;;9.03;;
57822;SDS011;43650;48.064;20.624;2023-01-16T01:18:59;129.23;;;14.40;;
57822;SDS011;43650;48.064;20.624;2023-01-16T01:19:59;137.23;;;15.57;;
57822;SDS011;43650;48.064;20.624;2023-01-16T01:21:00;106.67;;;13.67;;
57822;SDS011;43650;48.064;20.624;2023-01-16T01:22:00;122.72;;;13.62;;
57822;SDS011;43650;48.064;20.624;2023-01-16T01:23:01;186.10;;;17.97;;
57822;SDS011;43650;48.064;20.624;2023-01-16T01:24:01;130.47;;;13.00;;
57822;SDS011;43650;48.064;20.624;2023-01-16T01:25:02;242.97;;;18.63;;
57822;SDS011;43650;48.064;20.624;2023-01-16T01:26:06;191.87;;;18.77;;
57822;SDS011;43650;48.064;20.624;2023-01-16T01:27:11;87.97;;;12.35;;
57822;SDS011;43650;48.064;20.624;2023-01-16T01:28:11;229.40;;;19.23;;
57822;SDS011;43650;48.064;20.624;2023-01-16T01:29:12;239.47;;;19.63;;
57822;SDS011;43650;48.064;20.624;2023-01-16T01:30:12;103.50;;;11.77;;
57822;SDS011;43650;48.064;20.624;2023-01-16T01:31:13;118.07;;;12.57;;
57822;SDS011;43650;48.064;20.624;2023-01-16T01:32:13;49.70;;;9.47;;
57822;SDS011;43650;48.064;20.624;2023-01-16T01:33:13;211.50;;;16.63;;
57822;SDS011;43650;48.064;20.624;2023-01-16T01:34:14;116.13;;;12.07;;
57822;SDS011;43650;48.064;20.624;2023-01-16T01:35:14;57.97;;;9.47;;
57822;SDS011;43650;48.064;20.624;2023-01-16T01:36:17;273.13;;;20.62;;
57822;SDS011;43650;48.064;20.624;2023-01-16T01:37:17;108.47;;;12.50;;
57822;SDS011;43650;48.064;20.624;2023-01-16T01:38:18;142.60;;;13.23;;
57822;SDS011;43650;48.064;20.624;2023-01-16T01:39:18;50.27;;;10.57;;
57822;SDS011;43650;48.064;20.624;2023-01-16T01:40:19;77.63;;;12.10;;
57822;SDS011;43650;48.064;20.624;2023-01-16T01:41:19;76.93;;;12.63;;
57822;SDS011;43650;48.064;20.624;2023-01-16T01:42:20;112.87;;;13.20;;
57822;SDS011;43650;48.064;20.624;2023-01-16T01:43:39;96.37;;;12.37;;
57822;SDS011;43650;48.064;20.624;2023-01-16T01:44:53;145.52;;;16.58;;
57822;SDS011;43650;48.064;20.624;2023-01-16T01:45:55;34.55;;;9.63;;
57822;SDS011;43650;48.064;20.624;2023-01-16T01:46:56;18.77;;;8.07;;
57822;SDS011;43650;48.064;20.624;2023-01-16T01:49:00;32.13;;;9.45;;
57822;SDS011;43650;48.064;20.624;2023-01-16T01:50:14;27.52;;;8.60;;
57822;SDS011;43650;48.064;20.624;2023-01-16T01:51:31;69.32;;;10.30;;
57822;SDS011;43650;48.064;20.624;2023-01-16T01:52:34;131.63;;;15.85;;
57822;SDS011;43650;48.064;20.624;2023-01-16T01:55:07;157.90;;;13.95;;
57822;SDS011;43650;48.064;20.624;2023-01-16T01:56:24;166.75;;;15.35;;
57822;SDS011;43650;48.064;20.624;2023-01-16T01:57:28;19.42;;;8.18;;
57822;SDS011;43650;48.064;20.624;2023-01-16T01:58:33;57.50;;;10.65;;
57822;SDS011;43650;48.064;20.624;2023-01-16T01:59:35;57.53;;;10.70;;
57822;SDS011;43650;48.064;20.624;2023-01-16T02:00:38;39.40;;;8.57;;
57822;SDS011;43650;48.064;20.624;2023-01-16T02:01:39;79.00;;;11.73;;
57822;SDS011;43650;48.064;20.624;2023-01-16T02:02:41;50.93;;;10.00;;
57822;SDS011;43650;48.064;20.624;2023-01-16T02:03:51;142.27;;;13.68;;
57822;SDS011;43650;48.064;20.624;2023-01-16T02:04:57;124.25;;;13.73;;
57822;SDS011;43650;48.064;20.624;2023-01-16T02:05:58;105.70;;;13.23;;
57822;SDS011;43650;48.064;20.624;2023-01-16T02:07:05;147.87;;;13.45;;
57822;SDS011;43650;48.064;20.624;2023-01-16T02:08:07;137.93;;;15.90;;
57822;SDS011;43650;48.064;20.624;2023-01-16T02:09:08;98.53;;;14.80;;
57822;SDS011;43650;48.064;20.624;2023-01-16T02:11:15;67.82;;;9.60;;
57822;SDS011;43650;48.064;20.624;2023-01-16T02:12:29;32.38;;;9.38;;
57822;SDS011;43650;48.064;20.624;2023-01-16T02:13:29;32.77;;;9.43;;
57822;SDS011;43650;48.064;20.624;2023-01-16T02:14:34;45.87;;;10.73;;
57822;SDS011;43650;48.064;20.624;2023-01-16T02:15:37;31.35;;;9.88;;
57822;SDS011;43650;48.064;20.624;2023-01-16T02:17:08;70.82;;;11.07;;
57822;SDS011;43650;48.064;20.624;2023-01-16T02:18:32;32.20;;;8.43;;
57822;SDS011;43650;48.064;20.624;2023-01-16T02:27:17;16.17;;;6.87;;
57822;SDS011;43650;48.064;20.624;2023-01-16T02:28:38;42.90;;;8.85;;
57822;SDS011;43650;48.064;20.624;2023-01-16T02:37:30;31.05;;;9.25;;
57822;SDS011;43650;48.064;20.624;2023-01-16T02:38:58;16.05;;;7.20;;
57822;SDS011;43650;48.064;20.624;2023-01-16T02:40:15;29.42;;;8.15;;
57822;SDS011;43650;48.064;20.624;2023-01-16T02:41:26;146.87;;;12.43;;
57822;SDS011;43650;48.064;20.624;2023-01-16T02:42:33;39.05;;;8.27;;
57822;SDS011;43650;48.064;20.624;2023-01-16T02:43:36;45.88;;;7.60;;
57822;SDS011;43650;48.064;20.624;2023-01-16T02:46:12;23.62;;;7.37;;
57822;SDS011;43650;48.064;20.624;2023-01-16T02:47:32;10.85;;;5.30;;
57822;SDS011;43650;48.064;20.624;2023-01-16T02:48:38;57.10;;;8.15;;
57822;SDS011;43650;48.064;20.624;2023-01-16T02:49:50;44.13;;;7.87;;
57822;SDS011;43650;48.064;20.624;2023-01-16T02:54:16;12.23;;;5.80;;
57822;SDS011;43650;48.064;20.624;2023-01-16T02:55:37;27.10;;;6.50;;
57822;SDS011;43650;48.064;20.624;2023-01-16T02:56:43;37.60;;;6.82;;
57822;SDS011;43650;48.064;20.624;2023-01-16T02:57:47;16.42;;;6.72;;
57822;SDS011;43650;48.064;20.624;2023-01-16T02:58:49;22.37;;;9.45;;
57822;SDS011;43650;48.064;20.624;2023-01-16T02:59:51;28.45;;;9.13;;
57822;SDS011;43650;48.064;20.624;2023-01-16T03:00:53;33.93;;;11.60;;
57822;SDS011;43650;48.064;20.624;2023-01-16T03:01:55;36.13;;;15.57;;
57822;SDS011;43650;48.064;20.624;2023-01-16T03:02:56;38.22;;;14.65;;
57822;SDS011;43650;48.064;20.624;2023-01-16T03:04:57;24.57;;;10.67;;
57822;SDS011;43650;48.064;20.624;2023-01-16T03:06:00;31.90;;;11.03;;
57822;SDS011;43650;48.064;20.624;2023-01-16T03:11:52;25.37;;;8.25;;
57822;SDS011;43650;48.064;20.624;2023-01-16T03:13:22;30.75;;;8.95;;
57822;SDS011;43650;48.064;20.624;2023-01-16T03:14:42;23.17;;;9.00;;
57822;SDS011;43650;48.064;20.624;2023-01-16T03:22:38;23.98;;;10.20;;
57822;SDS011;43650;48.064;20.624;2023-01-16T03:23:56;19.83;;;8.98;;
57822;SDS011;43650;48.064;20.624;2023-01-16T03:25:02;19.52;;;7.43;;
57822;SDS011;43650;48.064;20.624;2023-01-16T03:26:56;15.18;;;6.53;;
57822;SDS011;43650;48.064;20.624;2023-01-16T03:27:52;23.67;;;7.70;;
57822;SDS011;43650;48.064;20.624;2023-01-16T03:30:11;17.75;;;6.68;;
57822;SDS011;43650;48.064;20.624;2023-01-16T03:31:17;29.95;;;8.82;;
57822;SDS011;43650;48.064;20.624;2023-01-16T03:32:37;16.98;;;7.37;;
57822;SDS011;43650;48.064;20.624;2023-01-16T03:33:55;16.17;;;8.02;;
57822;SDS011;43650;48.064;20.624;2023-01-16T03:35:10;14.93;;;6.72;;
57822;SDS011;43650;48.064;20.624;2023-01-16T03:36:16;15.77;;;6.80;;
57822;SDS011;43650;48.064;20.624;2023-01-16T03:37:44;12.68;;;5.45;;
57822;SDS011;43650;48.064;20.624;2023-01-16T03:38:49;18.17;;;6.72;;
57822;SDS011;43650;48.064;20.624;2023-01-16T03:39:53;19.25;;;7.75;;
57822;SDS011;43650;48.064;20.624;2023-01-16T03:40:56;18.17;;;8.57;;
57822;SDS011;43650;48.064;20.624;2023-01-16T03:42:00;20.37;;;8.68;;
57822;SDS011;43650;48.064;20.624;2023-01-16T03:43:16;25.02;;;7.80;;
57822;SDS011;43650;48.064;20.624;2023-01-16T03:44:29;21.20;;;9.25;;
57822;SDS011;43650;48.064;20.624;2023-01-16T03:45:39;24.37;;;8.32;;
57822;SDS011;43650;48.064;20.624;2023-01-16T03:46:47;21.08;;;8.45;;
57822;SDS011;43650;48.064;20.624;2023-01-16T03:47:51;26.10;;;10.07;;
57822;SDS011;43650;48.064;20.624;2023-01-16T03:48:57;23.25;;;9.95;;
57822;SDS011;43650;48.064;20.624;2023-01-16T03:50:01;24.23;;;10.50;;
57822;SDS011;43650;48.064;20.624;2023-01-16T03:51:06;27.30;;;11.35;;
57822;SDS011;43650;48.064;20.624;2023-01-16T03:52:08;22.33;;;9.15;;
57822;SDS011;43650;48.064;20.624;2023-01-16T03:53:12;25.62;;;11.18;;
57822;SDS011;43650;48.064;20.624;2023-01-16T03:55:29;28.00;;;10.80;;
57822;SDS011;43650;48.064;20.624;2023-01-16T03:58:02;33.50;;;10.75;;
57822;SDS011;43650;48.064;20.624;2023-01-16T03:59:13;36.33;;;12.05;;
57822;SDS011;43650;48.064;20.624;2023-01-16T04:00:14;27.80;;;11.43;;
57822;SDS011;43650;48.064;20.624;2023-01-16T04:03:49;22.48;;;8.60;;
57822;SDS011;43650;48.064;20.624;2023-01-16T04:04:55;22.67;;;9.35;;
57822;SDS011;43650;48.064;20.624;2023-01-16T04:06:03;23.77;;;10.73;;
57822;SDS011;43650;48.064;20.624;2023-01-16T04:08:23;21.45;;;8.98;;
57822;SDS011;43650;48.064;20.624;2023-01-16T04:10:50;22.50;;;9.18;;
57822;SDS011;43650;48.064;20.624;2023-01-16T04:11:52;22.42;;;8.50;;
57822;SDS011;43650;48.064;20.624;2023-01-16T04:13:04;20.73;;;8.80;;
57822;SDS011;43650;48.064;20.624;2023-01-16T04:14:11;23.23;;;10.35;;
57822;SDS011;43650;48.064;20.624;2023-01-16T04:15:12;22.87;;;11.18;;
57822;SDS011;43650;48.064;20.624;2023-01-16T04:16:13;17.62;;;8.15;;
57822;SDS011;43650;48.064;20.624;2023-01-16T04:17:15;18.05;;;7.93;;
57822;SDS011;43650;48.064;20.624;2023-01-16T04:18:16;17.37;;;6.55;;
57822;SDS011;43650;48.064;20.624;2023-01-16T04:19:16;27.20;;;9.60;;
57822;SDS011;43650;48.064;20.624;2023-01-16T04:21:19;43.30;;;12.35;;
57822;SDS011;43650;48.064;20.624;2023-01-16T04:22:26;47.95;;;12.40;;
57822;SDS011;43650;48.064;20.624;2023-01-16T04:23:28;25.45;;;9.27;;
57822;SDS011;43650;48.064;20.624;2023-01-16T04:24:28;23.63;;;7.87;;
57822;SDS011;43650;48.064;20.624;2023-01-16T04:25:29;21.80;;;7.70;;
57822;SDS011;43650;48.064;20.624;2023-01-16T04:26:29;16.87;;;7.43;;
57822;SDS011;43650;48.064;20.624;2023-01-16T04:27:30;15.33;;;5.73;;
57822;SDS011;43650;48.064;20.624;2023-01-16T04:28:30;15.83;;;6.97;;
57822;SDS011;43650;48.064;20.624;2023-01-16T04:29:30;13.10;;;5.57;;
57822;SDS011;43650;48.064;20.624;2023-01-16T04:30:31;14.33;;;6.20;;
57822;SDS011;43650;48.064;20.624;2023-01-16T04:31:31;13.37;;;4.80;;
57822;SDS011;43650;48.064;20.624;2023-01-16T04:32:32;14.03;;;6.77;;
57822;SDS011;43650;48.064;20.624;2023-01-16T04:33:32;15.60;;;6.33;;
57822;SDS011;43650;48.064;20.624;2023-01-16T04:34:33;14.27;;;5.50;;
57822;SDS011;43650;48.064;20.624;2023-01-16T04:35:33;12.03;;;5.83;;
57822;SDS011;43650;48.064;20.624;2023-01-16T04:36:34;18.27;;;7.60;;
57822;SDS011;43650;48.064;20.624;2023-01-16T04:37:34;14.77;;;7.33;;
57822;SDS011;43650;48.064;20.624;2023-01-16T04:38:35;16.75;;;7.62;;
57822;SDS011;43650;48.064;20.624;2023-01-16T04:39:35;16.73;;;8.37;;
57822;SDS011;43650;48.064;20.624;2023-01-16T04:40:36;25.93;;;10.33;;
57822;SDS011;43650;48.064;20.624;2023-01-16T04:41:36;22.97;;;10.17;;
57822;SDS011;43650;48.064;20.624;2023-01-16T04:42:37;16.03;;;9.13;;
57822;SDS011;43650;48.064;20.624;2023-01-16T04:43:37;17.30;;;9.03;;
57822;SDS011;43650;48.064;20.624;2023-01-16T04:44:37;21.80;;;12.23;;
57822;SDS011;43650;48.064;20.624;2023-01-16T04:45:38;20.53;;;9.50;;
57822;SDS011;43650;48.064;20.624;2023-01-16T04:46:40;21.35;;;10.48;;
57822;SDS011;43650;48.064;20.624;2023-01-16T04:47:44;22.73;;;10.07;;
57822;SDS011;43650;48.064;20.624;2023-01-16T04:48:46;20.95;;;9.52;;
57822;SDS011;43650;48.064;20.624;2023-01-16T04:49:47;16.70;;;8.93;;
57822;SDS011;43650;48.064;20.624;2023-01-16T04:50:48;18.93;;;10.03;;
57822;SDS011;43650;48.064;20.624;2023-01-16T04:51:49;17.58;;;8.45;;
57822;SDS011;43650;48.064;20.624;2023-01-16T04:52:49;18.07;;;9.03;;
57822;SDS011;43650;48.064;20.624;2023-01-16T04:53:50;16.10;;;8.17;;
57822;SDS011;43650;48.064;20.624;2023-01-16T04:54:51;16.42;;;9.00;;
57822;SDS011;43650;48.064;20.624;2023-01-16T04:55:51;18.27;;;9.33;;
57822;SDS011;43650;48.064;20.624;2023-01-16T04:56:51;21.03;;;8.23;;
57822;SDS011;43650;48.064;20.624;2023-01-16T04:57:52;17.87;;;9.37;;
57822;SDS011;43650;48.064;20.624;2023-01-16T04:58:52;18.77;;;8.57;;
57822;SDS011;43650;48.064;20.624;2023-01-16T04:59:53;13.13;;;6.90;;
57822;SDS011;43650;48.064;20.624;2023-01-16T05:00:53;15.63;;;8.37;;
57822;SDS011;43650;48.064;20.624;2023-01-16T05:01:54;17.00;;;8.87;;
57822;SDS011;43650;48.064;20.624;2023-01-16T05:02:54;15.00;;;7.57;;
57822;SDS011;43650;48.064;20.624;2023-01-16T05:03:55;13.90;;;6.93;;
57822;SDS011;43650;48.064;20.624;2023-01-16T05:04:55;13.57;;;6.57;;
57822;SDS011;43650;48.064;20.624;2023-01-16T05:05:55;16.33;;;6.80;;
57822;SDS011;43650;48.064;20.624;2023-01-16T05:06:56;17.17;;;7.67;;
57822;SDS011;43650;48.064;20.624;2023-01-16T05:07:56;17.47;;;7.77;;
57822;SDS011;43650;48.064;20.624;2023-01-16T05:09:15;14.93;;;6.75;;
57822;SDS011;43650;48.064;20.624;2023-01-16T05:10:16;18.53;;;8.63;;
57822;SDS011;43650;48.064;20.624;2023-01-16T05:11:16;16.20;;;7.83;;
57822;SDS011;43650;48.064;20.624;2023-01-16T05:12:17;15.20;;;7.00;;
57822;SDS011;43650;48.064;20.624;2023-01-16T05:13:17;18.33;;;6.93;;
57822;SDS011;43650;48.064;20.624;2023-01-16T05:14:17;13.30;;;6.60;;
57822;SDS011;43650;48.064;20.624;2023-01-16T05:15:18;17.07;;;7.70;;
57822;SDS011;43650;48.064;20.624;2023-01-16T05:16:18;18.03;;;7.43;;
57822;SDS011;43650;48.064;20.624;2023-01-16T05:17:19;18.30;;;6.97;;
57822;SDS011;43650;48.064;20.624;2023-01-16T05:18:24;19.20;;;8.38;;
57822;SDS011;43650;48.064;20.624;2023-01-16T05:19:24;18.25;;;8.30;;
57822;SDS011;43650;48.064;20.624;2023-01-16T05:20:25;23.73;;;9.63;;
57822;SDS011;43650;48.064;20.624;2023-01-16T05:21:25;15.70;;;7.23;;
57822;SDS011;43650;48.064;20.624;2023-01-16T05:22:26;14.60;;;7.80;;
57822;SDS011;43650;48.064;20.624;2023-01-16T05:23:27;16.70;;;7.15;;
57822;SDS011;43650;48.064;20.624;2023-01-16T05:24:27;17.83;;;8.40;;
57822;SDS011;43650;48.064;20.624;2023-01-16T05:25:28;15.50;;;8.27;;
57822;SDS011;43650;48.064;20.624;2023-01-16T05:26:29;18.17;;;8.23;;
57822;SDS011;43650;48.064;20.624;2023-01-16T05:27:29;21.92;;;9.95;;
57822;SDS011;43650;48.064;20.624;2023-01-16T05:28:29;28.30;;;11.33;;
57822;SDS011;43650;48.064;20.624;2023-01-16T05:29:30;30.47;;;10.63;;
57822;SDS011;43650;48.064;20.624;2023-01-16T05:30:30;23.27;;;10.43;;
57822;SDS011;43650;48.064;20.624;2023-01-16T05:31:31;16.17;;;8.13;;
57822;SDS011;43650;48.064;20.624;2023-01-16T05:32:31;22.13;;;7.97;;
57822;SDS011;43650;48.064;20.624;2023-01-16T05:33:32;18.77;;;7.87;;
57822;SDS011;43650;48.064;20.624;2023-01-16T05:34:32;21.43;;;8.80;;
57822;SDS011;43650;48.064;20.624;2023-01-16T05:35:33;26.03;;;11.13;;
57822;SDS011;43650;48.064;20.624;2023-01-16T05:36:33;32.97;;;13.43;;
57822;SDS011;43650;48.064;20.624;2023-01-16T05:37:34;27.80;;;9.43;;
57822;SDS011;43650;48.064;20.624;2023-01-16T05:38:34;29.30;;;8.93;;
57822;SDS011;43650;48.064;20.624;2023-01-16T05:39:35;16.07;;;6.97;;
57822;SDS011;43650;48.064;20.624;2023-01-16T05:40:35;15.00;;;6.80;;
57822;SDS011;43650;48.064;20.624;2023-01-16T05:41:35;15.30;;;6.73;;
57822;SDS011;43650;48.064;20.624;2023-01-16T05:42:36;22.67;;;9.97;;
57822;SDS011;43650;48.064;20.624;2023-01-16T05:43:36;19.40;;;8.97;;
57822;SDS011;43650;48.064;20.624;2023-01-16T05:44:39;29.42;;;10.13;;
57822;SDS011;43650;48.064;20.624;2023-01-16T05:45:40;16.90;;;7.10;;
57822;SDS011;43650;48.064;20.624;2023-01-16T05:46:40;20.87;;;8.47;;
57822;SDS011;43650;48.064;20.624;2023-01-16T05:47:40;18.20;;;8.40;;
57822;SDS011;43650;48.064;20.624;2023-01-16T05:48:41;14.00;;;6.77;;
57822;SDS011;43650;48.064;20.624;2023-01-16T05:49:41;17.13;;;7.97;;
57822;SDS011;43650;48.064;20.624;2023-01-16T05:50:42;16.30;;;7.83;;
57822;SDS011;43650;48.064;20.624;2023-01-16T05:51:42;18.73;;;8.67;;
57822;SDS011;43650;48.064;20.624;2023-01-16T05:52:42;14.73;;;7.13;;
57822;SDS011;43650;48.064;20.624;2023-01-16T05:53:43;13.83;;;6.97;;
57822;SDS011;43650;48.064;20.624;2023-01-16T05:54:43;15.70;;;7.00;;
57822;SDS011;43650;48.064;20.624;2023-01-16T05:55:44;21.60;;;8.70;;
57822;SDS011;43650;48.064;20.624;2023-01-16T05:56:46;17.95;;;9.05;;
57822;SDS011;43650;48.064;20.624;2023-01-16T05:57:47;19.85;;;9.15;;
57822;SDS011;43650;48.064;20.624;2023-01-16T05:58:48;22.13;;;9.57;;
57822;SDS011;43650;48.064;20.624;2023-01-16T05:59:49;29.13;;;11.63;;
57822;SDS011;43650;48.064;20.624;2023-01-16T06:00:50;30.48;;;13.30;;
57822;SDS011;43650;48.064;20.624;2023-01-16T06:01:50;37.53;;;12.43;;
57822;SDS011;43650;48.064;20.624;2023-01-16T06:02:51;56.90;;;13.37;;
57822;SDS011;43650;48.064;20.624;2023-01-16T06:03:51;54.00;;;13.47;;
57822;SDS011;43650;48.064;20.624;2023-01-16T06:04:52;53.87;;;13.13;;
57822;SDS011;43650;48.064;20.624;2023-01-16T06:05:52;35.92;;;11.65;;
57822;SDS011;43650;48.064;20.624;2023-01-16T06:06:53;24.40;;;10.57;;
57822;SDS011;43650;48.064;20.624;2023-01-16T06:07:54;24.65;;;9.73;;
57822;SDS011;43650;48.064;20.624;2023-01-16T06:08:56;31.05;;;11.40;;
57822;SDS011;43650;48.064;20.624;2023-01-16T06:09:56;24.00;;;11.10;;
57822;SDS011;43650;48.064;20.624;2023-01-16T06:10:56;23.70;;;10.67;;
57822;SDS011;43650;48.064;20.624;2023-01-16T06:11:57;26.87;;;11.37;;
57822;SDS011;43650;48.064;20.624;2023-01-16T06:12:57;59.33;;;14.33;;
57822;SDS011;43650;48.064;20.624;2023-01-16T06:13:58;43.67;;;11.07;;
57822;SDS011;43650;48.064;20.624;2023-01-16T06:15:03;27.33;;;11.65;;
57822;SDS011;43650;48.064;20.624;2023-01-16T06:16:04;46.30;;;11.27;;
57822;SDS011;43650;48.064;20.624;2023-01-16T06:17:05;71.95;;;12.95;;
57822;SDS011;43650;48.064;20.624;2023-01-16T06:18:05;42.13;;;10.90;;
57822;SDS011;43650;48.064;20.624;2023-01-16T06:19:06;34.57;;;10.37;;
57822;SDS011;43650;48.064;20.624;2023-01-16T06:20:06;45.30;;;9.50;;
57822;SDS011;43650;48.064;20.624;2023-01-16T06:21:07;62.70;;;11.65;;
57822;SDS011;43650;48.064;20.624;2023-01-16T06:22:08;55.70;;;16.57;;
57822;SDS011;43650;48.064;20.624;2023-01-16T06:23:11;65.22;;;9.32;;
57822;SDS011;43650;48.064;20.624;2023-01-16T06:24:11;52.90;;;12.13;;
57822;SDS011;43650;48.064;20.624;2023-01-16T06:25:12;83.03;;;14.63;;
57822;SDS011;43650;48.064;20.624;2023-01-16T06:26:12;45.67;;;19.03;;
57822;SDS011;43650;48.064;20.624;2023-01-16T06:27:13;86.33;;;13.27;;
57822;SDS011;43650;48.064;20.624;2023-01-16T06:28:13;45.93;;;9.80;;
57822;SDS011;43650;48.064;20.624;2023-01-16T06:29:13;28.07;;;10.03;;
57822;SDS011;43650;48.064;20.624;2023-01-16T06:30:14;40.67;;;11.03;;
57822;SDS011;43650;48.064;20.624;2023-01-16T06:31:15;74.90;;;12.65;;
57822;SDS011;43650;48.064;20.624;2023-01-16T06:32:15;127.23;;;12.80;;
57822;SDS011;43650;48.064;20.624;2023-01-16T06:33:16;67.70;;;12.40;;
57822;SDS011;43650;48.064;20.624;2023-01-16T06:34:16;127.20;;;18.20;;
57822;SDS011;43650;48.064;20.624;2023-01-16T06:35:17;95.47;;;13.23;;
57822;SDS011;43650;48.064;20.624;2023-01-16T06:36:18;31.83;;;9.88;;
57822;SDS011;43650;48.064;20.624;2023-01-16T06:37:18;55.37;;;13.33;;
57822;SDS011;43650;48.064;20.624;2023-01-16T06:38:18;107.53;;;19.70;;
57822;SDS011;43650;48.064;20.624;2023-01-16T06:39:19;157.90;;;37.03;;
57822;SDS011;43650;48.064;20.624;2023-01-16T06:40:19;60.40;;;25.53;;
57822;SDS011;43650;48.064;20.624;2023-01-16T06:41:20;108.60;;;22.83;;
57822;SDS011;43650;48.064;20.624;2023-01-16T06:42:20;100.13;;;20.63;;
57822;SDS011;43650;48.064;20.624;2023-01-16T06:43:25;79.15;;;14.18;;
57822;SDS011;43650;48.064;20.624;2023-01-16T06:44:26;54.95;;;9.70;;
57822;SDS011;43650;48.064;20.624;2023-01-16T06:45:26;144.87;;;21.73;;
57822;SDS011;43650;48.064;20.624;2023-01-16T06:46:27;119.03;;;28.17;;
57822;SDS011;43650;48.064;20.624;2023-01-16T06:47:27;83.50;;;23.20;;
57822;SDS011;43650;48.064;20.624;2023-01-16T06:48:28;160.37;;;31.70;;
57822;SDS011;43650;48.064;20.624;2023-01-16T06:49:28;209.27;;;64.87;;
57822;SDS011;43650;48.064;20.624;2023-01-16T06:50:29;122.80;;;44.20;;